Connexion S'enregistrer

Connexion à votre compte

Identifiant
Mot de passe
Maintenir la connexion active sur ce site

Créer un compte

Pour valider ce formulaire, vous devez remplir tous les champs.
Nom
Identifiant
Mot de passe
Répétez le mot de passe
Adresse e-mail
Répétez l'adresse e-mail

METAR/TAF de Chambéry

[source: ADDS]
METAR
LFLB 161230Z AUTO 35008KT CAVOK 14/11 Q1019 NOSIG =
TAF AMD LFLB 160936Z 1609/1709 VRB02KT 6000 BKN005 BECMG 1609/1611 35006KT CAVOK BECMG 1617/1619 VRB02KT PROB40 TEMPO 1703/1709 3000 BR PROB30 TEMPO 1703/1708 0600 FG SCT002
TAF
TAF AMD LFLB 160936Z 1609/1709 VRB02KT 6000 BKN005 BECMG 1609/1611 35006KT CAVOK BECMG 1617/1619 VRB02KT PROB40 TEMPO 1703/1709 3000 BR PROB30 TEMPO 1703/1708 0600 FG SCT002 =
SR / SS: 05:54 / 16:49 UTC (Lever/Coucher du soleil le 2021-10-16)

 

Webcam de l'Aéroclub - Parking Lima et SW (réactualisation : 5min)

Cliquer ici pour une animation sur les 3 dernières heures / Cliquer sur l'image pour l'agrandir dans une nouvelle fenêtre

 

Webcam de l'Aéroclub - Manche à air et WA (réactualisation : 5min)

Cliquer ici pour une animation sur les 3 dernières heures / Cliquer sur l'image pour l'agrandir dans une nouvelle fenêtre

 

JSN Boot template designed by JoomlaShine.com